createdAt,value
2016-11-18T00:01:03.501Z,925.76
2016-11-18T00:02:17.269Z,925.75
2016-11-18T00:03:30.823Z,925.77
2016-11-18T00:04:42.747Z,925.79
2016-11-18T00:05:56.238Z,925.79
2016-11-18T00:07:09.827Z,925.82
2016-11-18T00:08:22.269Z,925.84
2016-11-18T00:09:35.221Z,925.85
2016-11-18T00:10:47.756Z,925.85
2016-11-18T00:12:00.803Z,925.81
2016-11-18T00:13:13.976Z,925.84
2016-11-18T00:14:27.502Z,925.82
2016-11-18T00:15:40.532Z,925.85
2016-11-18T00:16:52.426Z,925.87
2016-11-18T00:18:05.358Z,925.9
2016-11-18T00:19:18.464Z,925.91
2016-11-18T00:20:31.588Z,925.95
2016-11-18T00:21:44.113Z,925.97
2016-11-18T00:22:57.708Z,925.96
2016-11-18T00:24:10.303Z,925.96
2016-11-18T00:25:22.775Z,925.94
2016-11-18T00:26:35.778Z,925.94
2016-11-18T00:27:49.274Z,925.96
2016-11-18T00:29:02.442Z,925.91
2016-11-18T00:30:16.064Z,925.92
2016-11-18T00:31:28.565Z,925.93
2016-11-18T00:32:42.111Z,925.95
2016-11-18T00:33:54.003Z,925.92
2016-11-18T00:35:06.082Z,925.93
2016-11-18T00:36:19.576Z,925.94
2016-11-18T00:37:32.613Z,925.96
2016-11-18T00:38:45.094Z,925.96
2016-11-18T00:39:58.717Z,925.96
2016-11-18T00:41:10.782Z,925.95
2016-11-18T00:44:08.866Z,926
2016-11-18T00:45:22.597Z,925.98
2016-11-18T00:46:35.597Z,926.05
2016-11-18T00:47:48.535Z,926.06
2016-11-18T00:49:01.469Z,926.1
2016-11-18T00:50:13.933Z,926.09
2016-11-18T00:51:26.424Z,926.14
2016-11-18T00:52:39.358Z,926.22
2016-11-18T00:53:51.826Z,926.23
2016-11-18T00:55:04.767Z,926.27
2016-11-18T00:56:18.322Z,926.3
2016-11-18T00:57:31.892Z,926.31
2016-11-18T00:59:16.634Z,926.31
2016-11-18T01:00:30.125Z,926.29
2016-11-18T01:01:43.272Z,926.28
2016-11-18T01:02:56.756Z,926.26
2016-11-18T01:04:09.193Z,926.24
2016-11-18T01:05:22.663Z,926.27
2016-11-18T01:06:35.631Z,926.26
2016-11-18T01:07:49.128Z,926.26
2016-11-18T01:09:02.533Z,926.25
2016-11-18T01:10:15.019Z,926.24
2016-11-18T01:11:28.543Z,926.24
2016-11-18T01:13:13.240Z,926.2
2016-11-18T01:14:25.685Z,926.22
2016-11-18T01:15:39.171Z,926.21
2016-11-18T01:16:51.581Z,926.21
2016-11-18T01:18:04.660Z,926.21
2016-11-18T01:19:18.128Z,926.2
2016-11-18T01:20:30.548Z,926.19
2016-11-18T01:21:44.043Z,926.19
2016-11-18T01:22:56.966Z,926.2
2016-11-18T01:24:09.386Z,926.16
2016-11-18T01:25:22.901Z,926.19
2016-11-18T01:26:35.857Z,926.17
2016-11-18T01:27:48.890Z,926.14
2016-11-18T01:29:02.425Z,926.17
2016-11-18T01:30:14.878Z,926.12
2016-11-18T01:31:26.818Z,926.11
2016-11-18T01:32:39.251Z,926.08
2016-11-18T01:33:52.740Z,926.1
2016-11-18T01:35:05.718Z,926.08
2016-11-18T01:36:19.234Z,926.06
2016-11-18T01:37:32.664Z,926.1
2016-11-18T01:38:45.054Z,926.05
2016-11-18T01:39:57.606Z,926.06
2016-11-18T01:41:09.568Z,926.1
2016-11-18T01:42:22.006Z,926.11
2016-11-18T01:43:34.999Z,926.16
2016-11-18T01:44:48.448Z,926.09
2016-11-18T01:46:00.828Z,926.09
2016-11-18T01:47:13.784Z,926.07
2016-11-18T01:48:27.246Z,926.03
2016-11-18T01:49:40.140Z,926.01
2016-11-18T01:50:52.669Z,926
2016-11-18T01:52:06.184Z,925.92
2016-11-18T01:53:18.629Z,926
2016-11-18T01:54:31.594Z,926.01
2016-11-18T01:55:44.508Z,925.97
2016-11-18T01:56:57.557Z,925.9
2016-11-18T01:58:11.068Z,925.94
2016-11-18T01:59:24.045Z,925.96
2016-11-18T02:00:36.993Z,925.88
2016-11-18T02:01:50.113Z,925.84
2016-11-18T02:03:03.163Z,925.84
2016-11-18T02:04:16.699Z,925.82
2016-11-18T02:05:29.717Z,925.78
2016-11-18T02:06:43.204Z,925.79
2016-11-18T02:07:56.121Z,925.78
2016-11-18T02:09:09.551Z,925.77
2016-11-18T02:10:23.064Z,925.7
2016-11-18T02:11:36.617Z,925.71
2016-11-18T02:12:50.256Z,925.71
2016-11-18T02:14:03.711Z,925.65
2016-11-18T02:15:16.632Z,925.67
2016-11-18T02:16:29.630Z,925.65
2016-11-18T02:17:42.579Z,925.64
2016-11-18T02:18:56.062Z,925.62
2016-11-18T02:20:09.572Z,925.59
2016-11-18T02:21:23.056Z,925.56
2016-11-18T02:22:36.002Z,925.52
2016-11-18T02:23:49.603Z,925.52
2016-11-18T02:25:02.564Z,925.55
2016-11-18T02:26:16.039Z,925.54
2016-11-18T02:27:28.954Z,925.55
2016-11-18T02:28:42.422Z,925.55
2016-11-18T02:29:55.956Z,925.51
2016-11-18T02:31:08.906Z,925.52
2016-11-18T02:32:21.264Z,925.52
2016-11-18T02:33:34.243Z,925.52
2016-11-18T02:34:48.000Z,925.53
2016-11-18T02:36:00.954Z,925.51
2016-11-18T02:37:13.839Z,925.49
2016-11-18T02:38:26.300Z,925.46
2016-11-18T02:39:39.219Z,925.44
2016-11-18T02:40:52.867Z,925.43
2016-11-18T02:42:05.847Z,925.4
2016-11-18T02:43:18.796Z,925.44
2016-11-18T02:44:31.211Z,925.44
2016-11-18T02:45:43.745Z,925.46
2016-11-18T02:46:56.175Z,925.46
2016-11-18T02:48:08.580Z,925.49
2016-11-18T02:49:52.122Z,925.54
2016-11-18T02:51:05.149Z,925.54
2016-11-18T02:52:18.613Z,925.58
2016-11-18T02:53:31.519Z,925.57
2016-11-18T02:54:44.506Z,925.56
2016-11-18T02:55:57.457Z,925.6
2016-11-18T02:57:09.973Z,925.54
2016-11-18T02:58:22.911Z,925.52
2016-11-18T02:59:35.387Z,925.47
2016-11-18T03:00:48.965Z,925.49
2016-11-18T03:02:02.662Z,925.55
2016-11-18T03:03:16.093Z,925.57
2016-11-18T03:04:29.584Z,925.58
2016-11-18T03:05:41.995Z,925.61
2016-11-18T03:06:55.484Z,925.66
2016-11-18T03:08:09.141Z,925.68
2016-11-18T03:09:22.139Z,925.8
2016-11-18T03:10:35.083Z,925.87
2016-11-18T03:11:47.536Z,925.87
2016-11-18T03:13:00.574Z,925.85
2016-11-18T03:14:14.045Z,925.8
2016-11-18T03:15:27.509Z,925.8
2016-11-18T03:16:40.473Z,925.69
2016-11-18T03:17:53.483Z,925.41
2016-11-18T03:19:06.421Z,925.17
2016-11-18T03:20:18.877Z,925.08
2016-11-18T03:21:32.403Z,925.04
2016-11-18T03:22:44.916Z,925
2016-11-18T03:23:58.028Z,924.97
2016-11-18T03:26:55.114Z,924.96
2016-11-18T03:28:08.639Z,924.99
2016-11-18T03:29:22.367Z,925.03
2016-11-18T03:30:34.818Z,925.1
2016-11-18T03:31:48.334Z,925.1
2016-11-18T03:33:00.279Z,925.11
2016-11-18T03:34:13.723Z,925.14
2016-11-18T03:35:26.195Z,925.17
2016-11-18T03:36:39.614Z,925.23
2016-11-18T03:37:52.114Z,925.26
2016-11-18T03:39:05.098Z,925.28
2016-11-18T03:40:18.060Z,925.27
2016-11-18T03:41:30.534Z,925.31
2016-11-18T03:42:43.958Z,925.37
2016-11-18T03:43:56.890Z,925.4
2016-11-18T03:45:09.306Z,925.37
2016-11-18T03:46:22.387Z,925.36
2016-11-18T03:48:06.966Z,925.36
2016-11-18T03:49:20.459Z,925.32
2016-11-18T03:50:33.029Z,925.3
2016-11-18T03:51:46.572Z,925.27
2016-11-18T03:52:59.566Z,925.25
2016-11-18T03:54:13.131Z,925.28
2016-11-18T03:55:26.176Z,925.27
2016-11-18T03:56:39.317Z,925.27
2016-11-18T03:57:52.777Z,925.24
2016-11-18T03:59:04.789Z,925.26
2016-11-18T04:00:18.338Z,925.2
2016-11-18T04:01:31.828Z,925.22
2016-11-18T04:02:45.325Z,925.21
2016-11-18T04:03:58.893Z,925.18
2016-11-18T04:05:12.398Z,925.17
2016-11-18T04:06:25.931Z,925.15
2016-11-18T04:07:38.884Z,925.14
2016-11-18T04:08:51.334Z,925.14
2016-11-18T04:10:04.288Z,925.11
2016-11-18T04:11:17.180Z,925.13
2016-11-18T04:12:30.354Z,925.07
2016-11-18T04:13:43.302Z,925.07
2016-11-18T04:14:56.283Z,925.08
2016-11-18T04:16:08.654Z,925.08
2016-11-18T04:17:21.104Z,925.04
2016-11-18T04:18:34.600Z,924.98
2016-11-18T04:19:48.162Z,924.98
2016-11-18T04:21:32.202Z,924.94
2016-11-18T04:22:45.260Z,924.91
2016-11-18T04:23:58.710Z,924.86
2016-11-18T04:25:11.633Z,924.84
2016-11-18T04:26:25.102Z,924.81
2016-11-18T04:27:38.637Z,924.81
2016-11-18T04:28:52.090Z,924.81
2016-11-18T04:30:05.608Z,924.8
2016-11-18T04:31:18.087Z,924.75
2016-11-18T04:32:31.556Z,924.77
2016-11-18T04:33:45.118Z,924.78
2016-11-18T04:34:58.609Z,924.72
2016-11-18T04:36:12.104Z,924.76
2016-11-18T04:37:25.578Z,924.77
2016-11-18T04:38:39.053Z,924.79
2016-11-18T04:39:52.034Z,924.77
2016-11-18T04:41:36.108Z,924.74
2016-11-18T04:42:49.620Z,924.7
2016-11-18T04:44:02.122Z,924.7
2016-11-18T04:45:15.037Z,924.67
2016-11-18T04:46:28.512Z,924.67
2016-11-18T04:47:41.445Z,924.71
2016-11-18T04:48:54.899Z,924.64
2016-11-18T04:50:08.339Z,924.67
2016-11-18T04:51:21.268Z,924.67
2016-11-18T04:52:34.828Z,924.73
2016-11-18T04:53:47.812Z,924.76
2016-11-18T04:55:00.319Z,924.8
2016-11-18T04:56:13.818Z,924.75
2016-11-18T04:57:26.740Z,924.81
2016-11-18T04:58:40.225Z,924.79
2016-11-18T04:59:53.724Z,924.79
2016-11-18T05:01:06.645Z,924.79
2016-11-18T05:02:20.125Z,924.78
2016-11-18T05:03:32.531Z,924.73
2016-11-18T05:04:46.007Z,924.69
2016-11-18T05:05:59.642Z,924.69
2016-11-18T05:07:13.155Z,924.66
2016-11-18T05:08:26.750Z,924.69
2016-11-18T05:09:40.299Z,924.71
2016-11-18T05:10:53.810Z,924.68
2016-11-18T05:12:06.880Z,924.68
2016-11-18T05:13:19.815Z,924.63
2016-11-18T05:14:32.829Z,924.61
2016-11-18T05:15:46.299Z,924.6
2016-11-18T05:16:59.426Z,924.57
2016-11-18T05:18:12.421Z,924.56
2016-11-18T05:19:25.944Z,924.58
2016-11-18T05:20:39.433Z,924.62
2016-11-18T05:21:53.024Z,924.62
2016-11-18T05:23:06.538Z,924.64
2016-11-18T05:24:20.029Z,924.62
2016-11-18T05:25:32.454Z,924.59
2016-11-18T05:26:44.394Z,924.62
2016-11-18T05:27:56.964Z,924.6
2016-11-18T05:29:10.432Z,924.55
2016-11-18T05:30:23.421Z,924.5
2016-11-18T05:31:35.857Z,924.49
2016-11-18T05:32:48.337Z,924.5
2016-11-18T05:34:00.761Z,924.49
2016-11-18T05:35:14.232Z,924.54
2016-11-18T05:36:27.698Z,924.53
2016-11-18T05:37:40.712Z,924.56
2016-11-18T05:38:54.394Z,924.59
2016-11-18T05:40:07.337Z,924.59
2016-11-18T05:41:20.808Z,924.63
2016-11-18T05:42:33.675Z,924.62
2016-11-18T05:43:47.234Z,924.62
2016-11-18T05:45:00.781Z,924.64
2016-11-18T05:46:13.270Z,924.57
2016-11-18T05:47:26.875Z,924.59
2016-11-18T05:48:39.368Z,924.63
2016-11-18T05:49:52.460Z,924.64
2016-11-18T05:51:04.906Z,924.62
2016-11-18T05:52:17.926Z,924.66
2016-11-18T05:53:30.894Z,924.59
2016-11-18T05:54:44.482Z,924.67
2016-11-18T05:55:58.115Z,924.66
2016-11-18T05:57:11.685Z,924.66
2016-11-18T05:58:24.716Z,924.61
2016-11-18T05:59:38.380Z,924.63
2016-11-18T06:00:52.031Z,924.64
2016-11-18T06:02:05.025Z,924.66
2016-11-18T06:03:18.084Z,924.65
2016-11-18T06:04:31.559Z,924.63
2016-11-18T06:05:44.489Z,924.65
2016-11-18T06:06:57.087Z,924.69
2016-11-18T06:08:10.107Z,924.7
2016-11-18T06:09:22.515Z,924.72
2016-11-18T06:10:34.954Z,924.71
2016-11-18T06:11:48.572Z,924.74
2016-11-18T06:13:02.085Z,924.78
2016-11-18T06:14:14.536Z,924.73
2016-11-18T06:15:28.036Z,924.74
2016-11-18T06:16:41.006Z,924.83
2016-11-18T06:17:54.093Z,924.88
2016-11-18T06:19:07.077Z,924.87
2016-11-18T06:20:20.031Z,924.92
2016-11-18T06:21:33.002Z,924.95
2016-11-18T06:22:45.565Z,924.99
2016-11-18T06:23:59.107Z,925.06
2016-11-18T06:25:12.142Z,925.08
2016-11-18T06:26:25.638Z,925.12
2016-11-18T06:27:38.630Z,925.15
2016-11-18T06:28:51.640Z,925.23
2016-11-18T06:30:04.599Z,925.13
2016-11-18T06:31:17.035Z,925.18
2016-11-18T06:32:30.028Z,925.11
2016-11-18T06:33:43.625Z,925.15
2016-11-18T06:34:57.112Z,925.14
2016-11-18T06:36:10.652Z,925.15
2016-11-18T06:37:23.610Z,925.25
2016-11-18T06:38:36.567Z,925.05
2016-11-18T06:39:49.674Z,924.96
2016-11-18T06:41:02.675Z,924.94
2016-11-18T06:42:14.660Z,924.97
2016-11-18T06:43:27.090Z,924.93
2016-11-18T06:44:40.296Z,925.1
2016-11-18T06:45:52.740Z,925.2
2016-11-18T06:47:05.719Z,925.19
2016-11-18T06:48:18.700Z,925.22
2016-11-18T06:49:32.187Z,925.24
2016-11-18T06:50:44.689Z,925.25
2016-11-18T06:51:57.718Z,925.23
2016-11-18T06:53:11.187Z,925.22
2016-11-18T06:54:24.170Z,925.32
2016-11-18T06:55:36.730Z,925.34
2016-11-18T06:56:49.710Z,925.35
2016-11-18T06:58:02.727Z,925.4
2016-11-18T06:59:15.757Z,925.41
2016-11-18T07:00:28.761Z,925.47
2016-11-18T07:01:41.828Z,925.48
2016-11-18T07:02:54.327Z,925.47
2016-11-18T07:04:07.839Z,925.44
2016-11-18T07:05:20.796Z,925.5
2016-11-18T07:06:34.374Z,925.5
2016-11-18T07:07:47.786Z,925.54
2016-11-18T07:08:59.683Z,925.54
2016-11-18T07:10:12.680Z,925.59
2016-11-18T07:11:25.143Z,925.59
2016-11-18T07:12:38.072Z,925.64
2016-11-18T07:13:50.000Z,925.62
2016-11-18T07:15:03.011Z,925.63
2016-11-18T07:16:15.957Z,925.6
2016-11-18T07:17:29.554Z,925.68
2016-11-18T07:18:42.510Z,925.8
2016-11-18T07:19:55.384Z,925.65
2016-11-18T07:21:07.852Z,925.83
2016-11-18T07:22:21.363Z,925.72
2016-11-18T07:23:33.236Z,925.72
2016-11-18T07:24:45.731Z,925.78
2016-11-18T07:25:58.689Z,925.83
2016-11-18T07:27:12.197Z,925.85
2016-11-18T07:28:25.886Z,925.85
2016-11-18T07:29:38.872Z,925.87
2016-11-18T07:30:51.315Z,925.86
2016-11-18T07:32:04.752Z,925.83
2016-11-18T07:33:17.219Z,925.92
2016-11-18T07:34:30.251Z,925.8
2016-11-18T07:35:42.663Z,925.88
2016-11-18T07:36:55.651Z,925.86
2016-11-18T07:38:09.141Z,925.85
2016-11-18T07:39:21.685Z,925.86
2016-11-18T07:40:34.628Z,925.86
2016-11-18T07:41:48.128Z,925.97
2016-11-18T07:43:00.524Z,925.91
2016-11-18T07:45:58.754Z,925.85
2016-11-18T07:47:11.108Z,925.88
2016-11-18T07:48:24.069Z,925.91
2016-11-18T07:49:37.011Z,925.87
2016-11-18T07:50:49.996Z,925.88
2016-11-18T07:52:03.061Z,925.89
2016-11-18T07:53:15.471Z,925.99
2016-11-18T07:54:28.446Z,925.89
2016-11-18T07:55:41.471Z,925.96
2016-11-18T07:56:54.991Z,925.98
2016-11-18T07:58:08.478Z,925.97
2016-11-18T07:59:20.421Z,925.96
2016-11-18T08:00:33.318Z,926
2016-11-18T08:01:46.391Z,925.92
2016-11-18T08:02:58.303Z,926.07
2016-11-18T08:04:11.289Z,926.13
2016-11-18T08:05:23.153Z,926.09
2016-11-18T08:06:35.686Z,926.12
2016-11-18T08:07:48.164Z,926.01
2016-11-18T08:09:01.601Z,926.1
2016-11-18T08:10:15.089Z,926.09
2016-11-18T08:11:28.567Z,926.08
2016-11-18T08:12:41.679Z,926.1
2016-11-18T08:13:54.638Z,926.09
2016-11-18T08:15:07.066Z,926.1
2016-11-18T08:16:20.054Z,926.1
2016-11-18T08:17:32.630Z,926.12
2016-11-18T08:18:45.599Z,926.05
2016-11-18T08:19:58.055Z,926.04
2016-11-18T08:21:10.529Z,926.06
2016-11-18T08:22:23.491Z,926.06
2016-11-18T08:23:36.950Z,926.09
2016-11-18T08:24:49.946Z,926.11
2016-11-18T08:26:02.849Z,926.12
2016-11-18T08:27:16.337Z,926.15
2016-11-18T08:28:30.408Z,926.1
2016-11-18T08:29:43.343Z,926.09
2016-11-18T08:30:56.337Z,926.18
2016-11-18T08:32:08.811Z,926.27
2016-11-18T08:33:21.770Z,926.25
2016-11-18T08:34:33.168Z,926.31
2016-11-18T08:35:46.637Z,926.23
2016-11-18T08:36:59.151Z,926.3
2016-11-18T08:38:12.675Z,926.29
2016-11-18T08:39:25.868Z,926.28
2016-11-18T08:40:37.749Z,926.26
2016-11-18T08:41:51.183Z,926.29
2016-11-18T08:43:04.628Z,926.24
2016-11-18T08:44:17.608Z,926.23
2016-11-18T08:45:31.177Z,926.26
2016-11-18T08:46:43.654Z,926.25
2016-11-18T08:47:57.187Z,926.31
2016-11-18T08:49:09.576Z,926.3
2016-11-18T08:50:23.156Z,926.36
2016-11-18T08:51:36.070Z,926.37
2016-11-18T08:52:49.620Z,926.4
2016-11-18T08:54:02.644Z,926.39
2016-11-18T08:55:15.137Z,926.35
2016-11-18T08:56:28.812Z,926.45
2016-11-18T08:57:40.219Z,926.44
2016-11-18T08:58:52.641Z,926.41
2016-11-18T09:00:05.584Z,926.4
2016-11-18T09:01:19.239Z,926.41
2016-11-18T09:02:32.681Z,926.41
2016-11-18T09:03:46.292Z,926.46
2016-11-18T09:04:59.979Z,926.5
2016-11-18T09:06:13.463Z,926.53
2016-11-18T09:07:26.357Z,926.53
2016-11-18T09:08:39.402Z,926.58
2016-11-18T09:09:52.882Z,926.58
2016-11-18T09:11:05.897Z,926.63
2016-11-18T09:12:49.548Z,926.67
2016-11-18T09:14:02.633Z,926.66
2016-11-18T09:15:15.121Z,926.72
2016-11-18T09:16:30.879Z,926.82
2016-11-18T09:17:43.375Z,926.86
2016-11-18T09:18:56.315Z,926.8
2016-11-18T09:20:09.803Z,926.85
2016-11-18T09:21:22.790Z,926.87
2016-11-18T09:22:36.434Z,926.89
2016-11-18T09:23:49.406Z,926.85
2016-11-18T09:25:02.971Z,926.81
2016-11-18T09:26:15.429Z,926.92
2016-11-18T09:27:29.046Z,926.83
2016-11-18T09:28:42.730Z,926.93
2016-11-18T09:29:55.184Z,927
2016-11-18T09:31:08.736Z,926.92
2016-11-18T09:32:21.331Z,926.95
2016-11-18T09:34:06.091Z,926.91
2016-11-18T09:35:19.056Z,926.9
2016-11-18T09:36:32.656Z,926.96
2016-11-18T09:37:45.669Z,926.98
2016-11-18T09:38:59.334Z,927.03
2016-11-18T09:40:12.769Z,926.94
2016-11-18T09:41:26.302Z,927.02
2016-11-18T09:42:39.471Z,927.06
2016-11-18T09:43:53.030Z,927.04
2016-11-18T09:45:06.532Z,927.1
2016-11-18T09:46:20.112Z,927.13
2016-11-18T09:47:33.588Z,927.11
2016-11-18T09:48:46.059Z,927.18
2016-11-18T09:49:58.590Z,927.2
2016-11-18T09:51:11.628Z,927.19
2016-11-18T09:52:24.139Z,927.22
2016-11-18T09:53:37.754Z,927.28
2016-11-18T09:54:51.243Z,927.28
2016-11-18T09:56:34.933Z,927.3
2016-11-18T09:57:48.503Z,927.29
2016-11-18T09:59:01.495Z,927.34
2016-11-18T10:00:14.150Z,927.35
2016-11-18T10:01:28.212Z,927.36
2016-11-18T10:02:41.019Z,927.44
2016-11-18T10:03:54.070Z,927.45
2016-11-18T10:05:07.175Z,927.55
2016-11-18T10:06:20.097Z,927.52
2016-11-18T10:08:03.679Z,927.58
2016-11-18T10:09:17.324Z,927.59
2016-11-18T10:10:30.969Z,927.58
2016-11-18T10:11:44.072Z,927.61
2016-11-18T10:12:57.680Z,927.62
2016-11-18T10:14:11.237Z,927.59
2016-11-18T10:15:24.203Z,927.63
2016-11-18T10:16:38.016Z,927.67
2016-11-18T10:17:51.007Z,927.71
2016-11-18T10:19:03.402Z,927.74
2016-11-18T10:20:16.893Z,927.75
2016-11-18T10:21:30.326Z,927.8
2016-11-18T10:22:42.895Z,927.82
2016-11-18T10:23:56.492Z,927.84
2016-11-18T10:25:08.903Z,927.87
2016-11-18T10:26:22.515Z,927.94
2016-11-18T10:27:36.330Z,927.94
2016-11-18T10:28:49.685Z,927.89
2016-11-18T10:30:03.327Z,927.82
2016-11-18T10:31:15.810Z,928
2016-11-18T10:32:29.363Z,928.02
2016-11-18T10:33:42.445Z,927.99
2016-11-18T10:34:55.965Z,928.01
2016-11-18T10:36:09.420Z,927.98
2016-11-18T10:37:22.369Z,928.03
2016-11-18T10:38:36.186Z,928.09
2016-11-18T10:39:48.639Z,928.16
2016-11-18T10:41:01.634Z,927.98
2016-11-18T10:42:15.112Z,928.12
2016-11-18T10:43:28.706Z,928.17
2016-11-18T10:44:41.364Z,928.27
2016-11-18T10:45:54.336Z,928.26
2016-11-18T10:47:07.368Z,928.21
2016-11-18T10:48:20.383Z,928.28
2016-11-18T10:49:33.983Z,928.27
2016-11-18T10:51:18.118Z,928.51
2016-11-18T10:52:31.084Z,928.47
2016-11-18T10:53:44.040Z,928.55
2016-11-18T10:54:57.669Z,928.57
2016-11-18T10:56:11.183Z,928.56
2016-11-18T10:57:24.887Z,928.53
2016-11-18T10:58:37.977Z,928.47
2016-11-18T10:59:51.053Z,928.55
2016-11-18T11:01:04.463Z,928.46
2016-11-18T11:02:17.517Z,928.47
2016-11-18T11:03:30.998Z,928.62
2016-11-18T11:04:45.331Z,928.75
2016-11-18T11:06:00.041Z,928.81
2016-11-18T11:07:13.616Z,928.84
2016-11-18T11:08:26.428Z,928.91
2016-11-18T11:10:10.419Z,929.07
2016-11-18T11:11:24.205Z,929.14
2016-11-18T11:12:37.698Z,928.91
2016-11-18T11:13:50.653Z,928.92
2016-11-18T11:15:04.153Z,928.97
2016-11-18T11:16:17.678Z,929.01
2016-11-18T11:17:30.621Z,929.02
2016-11-18T11:18:44.137Z,929.09
2016-11-18T11:19:57.075Z,929.09
2016-11-18T11:21:09.682Z,929.05
2016-11-18T11:22:22.697Z,929.07
2016-11-18T11:23:36.217Z,929.04
2016-11-18T11:24:49.779Z,928.93
2016-11-18T11:26:02.355Z,928.84
2016-11-18T11:27:13.701Z,928.84
2016-11-18T11:28:27.219Z,928.97
2016-11-18T11:29:41.395Z,928.94
2016-11-18T11:31:07.902Z,929.01
2016-11-18T11:32:27.099Z,929.06
2016-11-18T11:33:40.566Z,929.02
2016-11-18T11:34:54.094Z,929
2016-11-18T11:36:07.219Z,928.98
2016-11-18T11:37:21.537Z,928.97
2016-11-18T11:38:34.479Z,928.97
2016-11-18T11:39:47.473Z,929.02
2016-11-18T11:41:01.025Z,928.93
2016-11-18T11:42:45.553Z,929.07
2016-11-18T11:43:59.085Z,928.91
2016-11-18T11:45:12.791Z,929.05
2016-11-18T11:46:26.535Z,929.07
2016-11-18T11:47:39.243Z,929.12
2016-11-18T11:48:52.189Z,929.29
2016-11-18T11:50:05.303Z,929.27
2016-11-18T11:51:18.832Z,929.27
2016-11-18T11:53:03.636Z,929.11
2016-11-18T11:54:16.121Z,929.12
2016-11-18T11:55:29.116Z,929.17
2016-11-18T11:57:13.927Z,929.23
2016-11-18T11:58:26.369Z,929.26
2016-11-18T11:59:39.486Z,929.31
2016-11-18T12:00:53.801Z,929.38
2016-11-18T12:02:10.906Z,929.42
2016-11-18T12:03:23.349Z,929.47
2016-11-18T12:04:36.539Z,929.49
2016-11-18T12:05:48.926Z,929.48
2016-11-18T12:07:02.482Z,929.71
2016-11-18T12:08:16.239Z,929.86
2016-11-18T12:09:29.953Z,929.75
2016-11-18T12:10:43.683Z,929.85
2016-11-18T12:11:57.217Z,930.09
2016-11-18T12:13:10.898Z,930.15
2016-11-18T12:14:24.376Z,929.97
2016-11-18T12:15:37.372Z,929.51
2016-11-18T12:16:50.883Z,929.5
2016-11-18T12:18:03.937Z,929.48
2016-11-18T12:19:16.504Z,929.63
2016-11-18T12:20:29.040Z,929.49
2016-11-18T12:21:42.628Z,929.36
2016-11-18T12:22:55.720Z,929.19
2016-11-18T12:24:09.382Z,929.4
2016-11-18T12:25:22.896Z,929.79
2016-11-18T12:26:35.921Z,929.24
2016-11-18T12:27:49.416Z,929.11
2016-11-18T12:29:02.937Z,929.15
2016-11-18T12:30:15.929Z,929.41
2016-11-18T12:31:29.082Z,929.62
2016-11-18T12:32:42.708Z,929.97
2016-11-18T12:33:55.740Z,929.8
2016-11-18T12:35:08.895Z,929.74
2016-11-18T12:36:21.427Z,929.59
2016-11-18T12:37:34.933Z,929.7
2016-11-18T12:38:48.409Z,929.86
2016-11-18T12:40:00.964Z,929.73
2016-11-18T12:41:14.589Z,929.69
2016-11-18T12:42:28.138Z,929.9
2016-11-18T12:43:41.800Z,929.91
2016-11-18T12:44:55.353Z,929.74
2016-11-18T12:46:08.365Z,929.88
2016-11-18T12:47:21.371Z,929.91
2016-11-18T12:48:33.769Z,929.79
2016-11-18T12:49:47.295Z,929.77
2016-11-18T12:51:00.509Z,929.82
2016-11-18T12:52:13.832Z,929.8
2016-11-18T12:53:27.771Z,929.75
2016-11-18T12:54:40.890Z,929.75
2016-11-18T12:55:53.310Z,929.72
2016-11-18T12:57:06.369Z,929.76
2016-11-18T12:58:19.291Z,929.88
2016-11-18T12:59:32.369Z,929.8
2016-11-18T13:00:45.678Z,929.84
2016-11-18T13:02:02.080Z,929.66
2016-11-18T13:03:21.060Z,929.83
2016-11-18T13:04:34.886Z,929.79
2016-11-18T13:05:47.871Z,929.55
2016-11-18T13:07:01.518Z,929.48
2016-11-18T13:08:14.774Z,929.71
2016-11-18T13:09:27.589Z,930.02
2016-11-18T13:10:41.169Z,929.78
2016-11-18T13:11:54.823Z,929.88
2016-11-18T13:13:07.418Z,929.71
2016-11-18T13:14:19.942Z,929.62
2016-11-18T13:15:33.523Z,929.62
2016-11-18T13:16:48.834Z,929.73
2016-11-18T13:18:01.949Z,929.6
2016-11-18T13:19:15.691Z,929.54
2016-11-18T13:20:29.233Z,929.6
2016-11-18T13:21:42.205Z,929.55
2016-11-18T13:22:55.754Z,929.65
2016-11-18T13:24:08.775Z,929.68
2016-11-18T13:25:21.292Z,929.71
2016-11-18T13:26:34.269Z,929.58
2016-11-18T13:27:47.262Z,929.53
2016-11-18T13:29:00.917Z,929.49
2016-11-18T13:30:13.967Z,930.08
2016-11-18T13:31:26.470Z,929.98
2016-11-18T13:32:39.038Z,929.77
2016-11-18T13:33:51.527Z,930.02
2016-11-18T13:35:04.075Z,929.99
2016-11-18T13:36:17.063Z,929.97
2016-11-18T13:37:30.489Z,929.86
2016-11-18T13:38:44.047Z,929.77
2016-11-18T13:39:57.866Z,929.74
2016-11-18T13:41:10.949Z,929.68
2016-11-18T13:42:24.480Z,929.71
2016-11-18T13:43:37.978Z,929.59
2016-11-18T13:44:51.031Z,929.74
2016-11-18T13:46:35.964Z,929.77
2016-11-18T13:47:48.919Z,929.81
2016-11-18T13:49:02.483Z,929.72
2016-11-18T13:50:15.622Z,929.95
2016-11-18T13:51:27.580Z,929.94
2016-11-18T13:52:41.106Z,929.81
2016-11-18T13:53:54.044Z,929.72
2016-11-18T13:55:06.579Z,929.76
2016-11-18T13:56:19.996Z,929.65
2016-11-18T13:57:33.239Z,929.71
2016-11-18T13:58:46.719Z,929.61
2016-11-18T13:59:59.808Z,929.58
2016-11-18T14:01:13.617Z,929.77
2016-11-18T14:02:27.139Z,930.01
2016-11-18T14:03:40.159Z,929.79
2016-11-18T14:04:52.599Z,929.68
2016-11-18T14:06:05.774Z,929.75
2016-11-18T14:07:17.740Z,929.64
2016-11-18T14:08:30.345Z,929.64
2016-11-18T14:09:42.332Z,929.66
2016-11-18T14:10:55.837Z,929.73
2016-11-18T14:12:08.924Z,930.14
2016-11-18T14:13:22.055Z,929.97
2016-11-18T14:14:35.617Z,930.04
2016-11-18T14:15:48.216Z,930.17
2016-11-18T14:17:01.367Z,930.33
2016-11-18T14:18:15.279Z,930.37
2016-11-18T14:19:29.763Z,930.41
2016-11-18T14:20:42.205Z,930.34
2016-11-18T14:21:55.821Z,930.21
2016-11-18T14:23:08.795Z,930.1
2016-11-18T14:24:21.865Z,929.99
2016-11-18T14:25:35.497Z,929.8
2016-11-18T14:26:48.067Z,929.57
2016-11-18T14:28:01.635Z,929.45
2016-11-18T14:29:14.762Z,929.45
2016-11-18T14:30:28.235Z,929.56
2016-11-18T14:31:41.668Z,929.57
2016-11-18T14:32:54.707Z,929.47
2016-11-18T14:34:07.801Z,929.82
2016-11-18T14:35:21.250Z,929.87
2016-11-18T14:36:34.730Z,929.76
2016-11-18T14:37:47.974Z,929.96
2016-11-18T14:39:01.943Z,930.02
2016-11-18T14:40:14.404Z,929.97
2016-11-18T14:41:28.018Z,930.25
2016-11-18T14:42:41.009Z,929.86
2016-11-18T14:43:54.806Z,929.55
2016-11-18T14:45:07.949Z,929.55
2016-11-18T14:46:21.219Z,929.42
2016-11-18T14:47:34.230Z,929.45
2016-11-18T14:48:46.705Z,929.51
2016-11-18T14:49:59.749Z,929.84
2016-11-18T14:51:12.685Z,930.38
2016-11-18T14:52:26.258Z,930.16
2016-11-18T14:53:39.339Z,929.92
2016-11-18T14:54:52.398Z,929.58
2016-11-18T14:56:05.891Z,929.25
2016-11-18T14:57:18.322Z,929.36
2016-11-18T14:58:31.280Z,929.27
2016-11-18T14:59:44.321Z,929.33
2016-11-18T15:00:57.460Z,929.32
2016-11-18T15:02:09.954Z,929.33
2016-11-18T15:03:23.395Z,929.36
2016-11-18T15:04:36.826Z,929.41
2016-11-18T15:05:50.340Z,929.38
2016-11-18T15:07:03.303Z,929.31
2016-11-18T15:08:16.221Z,929.25
2016-11-18T15:09:29.665Z,929.33
2016-11-18T15:10:42.669Z,929.75
2016-11-18T15:11:55.740Z,929.95
2016-11-18T15:13:08.750Z,929.51
2016-11-18T15:14:21.286Z,929.62
2016-11-18T15:15:34.698Z,929.43
2016-11-18T15:16:48.210Z,929.41
2016-11-18T15:18:01.858Z,929.21
2016-11-18T15:19:14.445Z,929.03
2016-11-18T15:20:27.952Z,928.77
2016-11-18T15:21:40.940Z,929.06
2016-11-18T15:23:24.415Z,929.14
2016-11-18T15:24:37.384Z,929.24
2016-11-18T15:25:50.320Z,929.31
2016-11-18T15:27:03.820Z,929.27
2016-11-18T15:28:17.401Z,929.24
2016-11-18T15:29:30.877Z,929.23
2016-11-18T15:30:43.367Z,929.3